Time;durP1;ratioP1;P1;durP2;ratioP2;P2;SDS_P1;SDS_P2;PMS_P1;PMS_P2;Temp;Humidity;BMP_temperature;BMP_pressure;BME280_temperature;BME280_humidity;BME280_pressure;Samples;Min_cycle;Max_cycle;Signal;HPM_P1;HPM_P2
2022/05/02 00:01:48;;;;;;;11.10;9.10;;;11.70;93.80;;;;;;7375352;19;20408;-48
2022/05/02 00:04:23;;;;;;;12.30;9.47;;;11.70;94.00;;;;;;7372266;19;20425;-48
2022/05/02 00:06:52;;;;;;;14.60;9.73;;;11.70;93.50;;;;;;7371378;19;20384;-47
2022/05/02 00:09:26;;;;;;;12.73;9.00;;;11.60;93.60;;;;;;7377645;19;20394;-50
2022/05/02 00:11:57;;;;;;;11.73;9.37;;;11.60;93.80;;;;;;7376511;19;20403;-48
2022/05/02 00:14:26;;;;;;;13.70;11.63;;;11.50;93.80;;;;;;7374731;19;20914;-48
2022/05/02 00:16:58;;;;;;;14.10;10.47;;;11.50;94.00;;;;;;7371933;19;20799;-48
2022/05/02 00:19:30;;;;;;;12.87;9.83;;;11.50;94.00;;;;;;7370737;19;20416;-48
2022/05/02 00:22:00;;;;;;;10.70;9.20;;;11.40;94.10;;;;;;7374403;19;20999;-48
2022/05/02 00:24:30;;;;;;;11.83;9.73;;;11.30;94.20;;;;;;7374411;19;20420;-49
2022/05/02 00:27:02;;;;;;;16.23;9.90;;;11.40;94.20;;;;;;7369940;19;21085;-48
2022/05/02 00:29:32;;;;;;;11.17;9.73;;;11.40;94.50;;;;;;7372336;19;20435;-41
2022/05/02 00:32:04;;;;;;;11.10;9.70;;;11.40;94.30;;;;;;7372664;19;20364;-40
2022/05/02 00:34:36;;;;;;;11.40;9.67;;;11.40;93.80;;;;;;7373355;19;20901;-40
2022/05/02 00:37:06;;;;;;;12.40;10.13;;;11.60;93.50;;;;;;7372169;19;20395;-40
2022/05/02 00:39:35;;;;;;;10.40;8.87;;;11.60;92.90;;;;;;7381417;19;20908;-41
2022/05/02 00:42:05;;;;;;;12.10;9.53;;;11.70;92.60;;;;;;7381557;19;20926;-40
2022/05/02 00:44:37;;;;;;;14.70;9.83;;;11.70;92.40;;;;;;7382204;19;20416;-40
2022/05/02 00:47:07;;;;;;;12.70;9.10;;;11.70;92.60;;;;;;7377071;19;20377;-40
2022/05/02 00:49:40;;;;;;;12.53;11.07;;;11.50;92.80;;;;;;7379901;19;20416;-41
2022/05/02 00:52:12;;;;;;;14.57;9.90;;;11.40;93.30;;;;;;7381742;19;20425;-41
2022/05/02 00:54:41;;;;;;;12.20;10.30;;;11.40;93.30;;;;;;7380672;19;20388;-40
2022/05/02 00:57:13;;;;;;;12.90;9.40;;;11.30;93.50;;;;;;7383624;19;20384;-40
2022/05/02 00:59:43;;;;;;;11.63;10.40;;;11.50;93.40;;;;;;7380937;19;20434;-49
2022/05/02 01:02:14;;;;;;;13.70;9.67;;;11.40;93.00;;;;;;7382457;19;20500;-49
2022/05/02 01:04:47;;;;;;;13.40;10.27;;;11.50;93.10;;;;;;7382998;19;20407;-49
2022/05/02 01:07:19;;;;;;;15.13;9.23;;;11.50;92.90;;;;;;7378088;19;20452;-50
2022/05/02 01:09:52;;;;;;;12.10;10.00;;;11.40;93.40;;;;;;7377849;19;20375;-49
2022/05/02 01:12:26;;;;;;;11.80;9.60;;;11.40;93.20;;;;;;7380478;19;20404;-49
2022/05/02 01:15:00;;;;;;;13.80;10.67;;;11.50;93.10;;;;;;7380602;19;20390;-49
2022/05/02 01:17:34;;;;;;;12.10;10.27;;;11.50;93.30;;;;;;7377791;19;20455;-49
2022/05/02 01:20:11;;;;;;;12.53;9.50;;;11.40;93.30;;;;;;7379236;19;20496;-49
2022/05/02 01:22:45;;;;;;;12.53;10.30;;;11.40;93.40;;;;;;7379113;19;20837;-49
2022/05/02 01:25:17;;;;;;;11.27;9.70;;;11.30;93.70;;;;;;7380140;19;20649;-49
2022/05/02 01:27:46;;;;;;;13.50;10.63;;;11.20;94.20;;;;;;7382479;19;20387;-49
2022/05/02 01:30:18;;;;;;;13.10;10.03;;;11.30;94.40;;;;;;7381059;19;20552;-49
2022/05/02 01:32:48;;;;;;;11.63;9.20;;;11.40;94.40;;;;;;7380983;19;20395;-49
2022/05/02 01:35:25;;;;;;;11.43;9.30;;;11.30;94.20;;;;;;7380271;19;20400;-48
2022/05/02 01:37:56;;;;;;;12.30;10.77;;;11.50;94.10;;;;;;7381714;19;20367;-49
2022/05/02 01:40:28;;;;;;;12.10;10.23;;;11.50;93.90;;;;;;7380020;19;20389;-49
2022/05/02 01:42:57;;;;;;;14.53;10.50;;;11.70;93.40;;;;;;7378957;19;20839;-49
2022/05/02 01:45:29;;;;;;;11.73;10.53;;;11.70;93.60;;;;;;7378470;19;20377;-49
2022/05/02 01:47:59;;;;;;;11.77;9.70;;;11.90;93.30;;;;;;7381016;19;20949;-50
2022/05/02 01:50:36;;;;;;;11.90;10.13;;;11.90;93.10;;;;;;7379906;19;20410;-49
2022/05/02 01:53:08;;;;;;;16.00;11.70;;;12.00;92.90;;;;;;7379960;19;20384;-49
2022/05/02 01:55:37;;;;;;;10.73;9.60;;;12.10;92.80;;;;;;7377800;19;20420;-48
2022/05/02 01:58:07;;;;;;;13.90;11.10;;;12.10;92.60;;;;;;7378301;19;20894;-49
2022/05/02 02:00:37;;;;;;;15.97;12.50;;;12.10;92.60;;;;;;7379132;19;20372;-40
2022/05/02 02:03:11;;;;;;;12.90;10.33;;;12.00;92.90;;;;;;7380088;19;20455;-40
2022/05/02 02:05:49;;;;;;;13.73;10.00;;;12.10;92.90;;;;;;7377790;19;20445;-40
2022/05/02 02:08:25;;;;;;;11.57;9.90;;;12.10;92.60;;;;;;7378996;19;20416;-41
2022/05/02 02:10:57;;;;;;;12.70;10.63;;;12.10;92.70;;;;;;7380269;19;20436;-40
2022/05/02 02:13:26;;;;;;;12.30;9.80;;;12.20;92.50;;;;;;7377330;19;20433;-41
2022/05/02 02:16:01;;;;;;;12.50;10.80;;;12.10;92.40;;;;;;7377824;19;20939;-40
2022/05/02 02:18:31;;;;;;;11.40;9.83;;;12.10;92.40;;;;;;7377613;19;20954;-40
2022/05/02 02:21:03;;;;;;;12.97;11.03;;;12.00;92.60;;;;;;7379635;19;20379;-41
2022/05/02 02:23:33;;;;;;;14.90;11.13;;;12.00;92.90;;;;;;7375954;19;20411;-41
2022/05/02 02:26:02;;;;;;;13.27;11.10;;;11.90;93.20;;;;;;7377275;19;20385;-41
2022/05/02 02:28:32;;;;;;;14.10;11.53;;;11.80;93.30;;;;;;7378553;19;20413;-40
2022/05/02 02:31:01;;;;;;;12.90;10.90;;;11.80;93.80;;;;;;7376989;19;21104;-49
2022/05/02 02:33:37;;;;;;;13.90;10.90;;;11.70;93.90;;;;;;7379565;19;20436;-49
2022/05/02 02:36:10;;;;;;;11.57;10.13;;;11.60;94.20;;;;;;7378288;19;20938;-50
2022/05/02 02:38:39;;;;;;;13.90;10.47;;;11.60;94.50;;;;;;7379748;19;20399;-49
2022/05/02 02:41:11;;;;;;;11.90;9.77;;;11.70;94.30;;;;;;7376241;19;20974;-49
2022/05/02 02:43:40;;;;;;;13.07;10.30;;;11.70;94.10;;;;;;7377144;19;21010;-49
2022/05/02 02:46:10;;;;;;;14.37;10.60;;;11.70;94.10;;;;;;7377010;19;20424;-49
2022/05/02 02:48:45;;;;;;;13.57;11.00;;;11.80;94.20;;;;;;7375991;19;20408;-49
2022/05/02 02:51:20;;;;;;;11.40;10.20;;;11.90;93.80;;;;;;7376277;19;20404;-49
2022/05/02 02:53:50;;;;;;;11.93;10.60;;;11.90;93.30;;;;;;7376321;19;20396;-49
2022/05/02 02:56:19;;;;;;;16.30;11.13;;;11.90;93.10;;;;;;7377999;19;20402;-49
2022/05/02 02:58:49;;;;;;;14.73;11.80;;;11.70;93.60;;;;;;7379312;19;20392;-49
2022/05/02 03:01:19;;;;;;;12.63;10.23;;;11.60;93.80;;;;;;7373380;19;20360;-49
2022/05/02 03:03:50;;;;;;;11.33;9.83;;;11.60;94.10;;;;;;7375418;19;20420;-49
2022/05/02 03:06:20;;;;;;;12.10;10.60;;;11.60;94.20;;;;;;7378001;19;20413;-49
2022/05/02 03:08:52;;;;;;;13.60;11.10;;;11.60;94.00;;;;;;7375662;19;20372;-49
2022/05/02 03:11:26;;;;;;;12.80;10.57;;;11.60;94.20;;;;;;7378035;19;20387;-49
2022/05/02 03:13:56;;;;;;;11.30;9.70;;;11.60;94.20;;;;;;7378563;19;20488;-48
2022/05/02 03:16:28;;;;;;;13.50;10.70;;;11.70;94.00;;;;;;7373496;19;20372;-49
2022/05/02 03:19:02;;;;;;;13.57;11.00;;;11.80;93.60;;;;;;7375274;19;20487;-49
2022/05/02 03:21:34;;;;;;;15.23;11.90;;;12.00;93.40;;;;;;7377560;19;21010;-49
2022/05/02 03:24:06;;;;;;;14.13;11.30;;;12.10;93.10;;;;;;7374734;19;20402;-49
2022/05/02 03:26:36;;;;;;;10.73;9.57;;;12.00;93.00;;;;;;7371488;19;20491;-49
2022/05/02 03:29:05;;;;;;;14.27;10.90;;;12.10;92.90;;;;;;7376565;19;20817;-49
2022/05/02 03:31:35;;;;;;;11.40;10.20;;;12.10;92.80;;;;;;7372562;19;20423;-41
2022/05/02 03:34:07;;;;;;;11.63;10.43;;;11.90;93.50;;;;;;7376481;19;21286;-40
2022/05/02 03:36:39;;;;;;;16.70;12.30;;;11.90;93.40;;;;;;7375416;19;20364;-41
2022/05/02 03:39:10;;;;;;;13.93;11.80;;;11.90;93.60;;;;;;7376945;19;21011;-41
2022/05/02 03:41:39;;;;;;;14.93;12.90;;;12.10;93.30;;;;;;7375327;19;20404;-41
2022/05/02 03:44:11;;;;;;;13.60;12.23;;;12.20;93.00;;;;;;7371564;19;20746;-41
2022/05/02 03:46:40;;;;;;;12.57;10.90;;;12.10;93.30;;;;;;7374471;19;20937;-40
2022/05/02 03:49:10;;;;;;;15.20;11.50;;;12.10;93.40;;;;;;7375656;19;20420;-41
2022/05/02 03:51:45;;;;;;;13.33;11.50;;;12.30;93.20;;;;;;7374897;19;20408;-40
2022/05/02 03:54:17;;;;;;;14.20;11.33;;;12.20;92.90;;;;;;7375431;19;20509;-41
2022/05/02 03:56:47;;;;;;;16.10;11.17;;;12.30;93.10;;;;;;7375330;19;20404;-41
2022/05/02 03:59:16;;;;;;;15.03;11.07;;;12.30;92.80;;;;;;7373445;19;20956;-41
2022/05/02 04:01:49;;;;;;;15.00;11.67;;;12.30;92.80;;;;;;7375291;19;20880;-41
2022/05/02 04:04:18;;;;;;;13.57;11.47;;;12.20;92.90;;;;;;7372505;19;20404;-41
2022/05/02 04:06:50;;;;;;;15.37;11.40;;;12.30;92.80;;;;;;7375554;19;20390;-41
2022/05/02 04:09:22;;;;;;;14.67;11.67;;;12.50;92.50;;;;;;7374517;19;20415;-41
2022/05/02 04:11:54;;;;;;;13.50;10.83;;;12.50;92.30;;;;;;7377390;19;20395;-41
2022/05/02 04:14:25;;;;;;;11.50;10.30;;;12.50;92.20;;;;;;7377724;19;20515;-38
2022/05/02 04:16:58;;;;;;;14.50;11.83;;;12.60;92.00;;;;;;7382845;19;20412;-41
2022/05/02 04:19:27;;;;;;;13.60;11.20;;;12.70;91.90;;;;;;7378522;19;21314;-41
2022/05/02 04:22:01;;;;;;;11.70;9.77;;;12.80;91.00;;;;;;7380471;19;20409;-41
2022/05/02 04:24:31;;;;;;;15.00;13.00;;;12.70;91.20;;;;;;7383458;19;20952;-41
2022/05/02 04:27:03;;;;;;;14.87;13.03;;;12.80;91.20;;;;;;7383770;19;20383;-41
2022/05/02 04:29:33;;;;;;;16.97;12.93;;;12.80;91.20;;;;;;7381234;19;21164;-41
2022/05/02 04:32:05;;;;;;;12.37;10.90;;;12.70;91.60;;;;;;7381329;19;20976;-49
2022/05/02 04:34:35;;;;;;;13.57;12.17;;;12.60;92.00;;;;;;7381623;19;20392;-48
2022/05/02 04:37:07;;;;;;;14.47;12.00;;;12.60;92.40;;;;;;7383783;19;20740;-49
2022/05/02 04:39:39;;;;;;;13.13;11.20;;;12.50;92.50;;;;;;7383040;19;20391;-49
2022/05/02 04:42:10;;;;;;;18.67;12.60;;;12.60;92.50;;;;;;7377542;19;21165;-49
2022/05/02 04:44:39;;;;;;;21.37;16.40;;;12.70;92.50;;;;;;7380497;19;20391;-49
2022/05/02 04:47:09;;;;;;;17.33;12.70;;;12.60;92.50;;;;;;7380682;19;20419;-49
2022/05/02 04:49:39;;;;;;;13.43;11.93;;;12.50;92.70;;;;;;7381443;19;20416;-49
2022/05/02 04:52:11;;;;;;;15.30;12.73;;;12.40;93.10;;;;;;7382715;19;20479;-49
2022/05/02 04:54:41;;;;;;;15.37;11.53;;;12.40;93.20;;;;;;7378908;19;20453;-50
2022/05/02 04:57:12;;;;;;;14.20;11.03;;;12.40;93.40;;;;;;7380667;19;20379;-50
2022/05/02 04:59:42;;;;;;;17.50;13.80;;;12.50;93.30;;;;;;7377648;19;20955;-49
2022/05/02 05:02:14;;;;;;;17.90;13.17;;;12.40;93.30;;;;;;7383483;19;20771;-49
2022/05/02 05:04:44;;;;;;;17.50;14.20;;;12.30;93.60;;;;;;7381667;19;20416;-49
2022/05/02 05:07:16;;;;;;;17.50;13.47;;;12.20;93.90;;;;;;7381106;19;20836;-49
2022/05/02 05:09:46;;;;;;;17.60;13.33;;;12.20;94.10;;;;;;7382607;19;20987;-49
2022/05/02 05:12:30;;;;;;;17.10;14.00;;;12.20;94.10;;;;;;7379827;19;20409;-49
2022/05/02 05:18:03;;;;;;;17.20;13.87;;;12.20;94.30;;;;;;7380382;19;20416;-49
2022/05/02 05:20:42;;;;;;;19.23;13.40;;;12.20;94.50;;;;;;7379421;19;21073;-48
2022/05/02 05:23:32;;;;;;;19.33;15.73;;;12.10;94.90;;;;;;7379389;19;20432;-49
2022/05/02 05:26:15;;;;;;;17.50;14.77;;;12.20;94.80;;;;;;7378931;19;20404;-48
2022/05/02 05:29:07;;;;;;;18.40;14.70;;;12.10;94.70;;;;;;7375024;19;20412;-49
2022/05/02 05:31:52;;;;;;;19.63;15.40;;;12.10;95.10;;;;;;7378311;19;20419;-41
2022/05/02 05:34:32;;;;;;;14.80;12.83;;;12.10;95.00;;;;;;7378073;19;20825;-41
2022/05/02 05:37:48;;;;;;;16.60;13.20;;;12.30;94.60;;;;;;7381484;19;20359;-38
2022/05/02 05:40:27;;;;;;;18.30;14.73;;;12.60;94.10;;;;;;7376661;19;21003;-41
2022/05/02 05:43:20;;;;;;;17.77;14.20;;;12.60;93.70;;;;;;7377251;19;20434;-41
2022/05/02 05:46:05;;;;;;;20.90;15.50;;;12.80;93.60;;;;;;7381313;19;20918;-41
2022/05/02 05:48:48;;;;;;;21.30;16.13;;;12.90;93.20;;;;;;7377541;19;20388;-40
2022/05/02 05:51:31;;;;;;;22.53;15.40;;;12.80;93.30;;;;;;7378792;19;20384;-41
2022/05/02 05:54:12;;;;;;;18.10;14.57;;;12.90;93.60;;;;;;7381191;19;20415;-41
2022/05/02 05:56:58;;;;;;;26.27;17.30;;;13.00;93.30;;;;;;7379373;19;20420;-41
2022/05/02 05:59:49;;;;;;;20.40;14.60;;;13.10;93.10;;;;;;7379274;19;20489;-41
2022/05/02 06:02:22;;;;;;;22.77;15.10;;;13.30;92.80;;;;;;7379884;19;20388;-49
2022/05/02 06:05:00;;;;;;;23.63;17.53;;;13.50;92.60;;;;;;7379792;19;20411;-49
2022/05/02 06:07:31;;;;;;;22.50;16.33;;;13.60;92.40;;;;;;7374214;19;21335;-49
2022/05/02 06:10:07;;;;;;;23.50;18.50;;;13.60;92.00;;;;;;7374038;19;20387;-49
2022/05/02 06:12:41;;;;;;;20.37;14.83;;;13.80;91.70;;;;;;7376245;19;21120;-49
2022/05/02 06:20:45;;;;;;;20.27;15.60;;;14.30;89.70;;;;;;7375424;19;20492;-49
2022/05/02 06:23:16;;;;;;;21.13;15.83;;;14.40;89.10;;;;;;7375331;19;20395;-49
2022/05/02 06:25:51;;;;;;;21.53;16.30;;;14.40;89.10;;;;;;7380309;19;20425;-49
2022/05/02 06:28:31;;;;;;;23.47;18.83;;;14.50;87.80;;;;;;7374608;19;20875;-49
2022/05/02 06:31:07;;;;;;;21.03;17.37;;;14.70;87.20;;;;;;7378484;19;20436;-49
2022/05/02 06:33:37;;;;;;;23.23;16.17;;;14.70;86.70;;;;;;7377784;19;20380;-50
2022/05/02 06:36:48;;;;;;;21.13;16.40;;;14.80;86.50;;;;;;7376345;19;20959;-49
2022/05/02 06:39:28;;;;;;;21.70;16.10;;;15.10;84.70;;;;;;7378694;19;20415;-50
2022/05/02 06:42:12;;;;;;;21.10;17.07;;;15.00;84.50;;;;;;7377693;19;21115;-49
2022/05/02 06:44:54;;;;;;;20.70;16.23;;;15.20;83.70;;;;;;7374602;19;20404;-49
2022/05/02 06:47:28;;;;;;;18.90;15.50;;;15.40;83.10;;;;;;7377916;19;20388;-49
2022/05/02 06:50:00;;;;;;;16.73;13.83;;;15.60;81.20;;;;;;7377110;19;21051;-49
2022/05/02 06:52:42;;;;;;;18.97;15.43;;;15.80;80.00;;;;;;7378868;19;21306;-50
2022/05/02 06:55:23;;;;;;;16.80;14.60;;;15.80;79.10;;;;;;7374604;19;20373;-49
2022/05/02 06:58:08;;;;;;;18.97;15.50;;;15.80;79.50;;;;;;7375128;19;20368;-49
2022/05/02 07:00:52;;;;;;;16.90;14.13;;;16.00;78.60;;;;;;7376346;19;20364;-49
2022/05/02 07:03:39;;;;;;;19.80;15.70;;;16.10;77.50;;;;;;7378333;19;20380;-47
2022/05/02 07:06:20;;;;;;;19.53;15.60;;;16.20;76.70;;;;;;7376676;19;20420;-47
2022/05/02 07:08:58;;;;;;;18.63;15.70;;;16.30;75.70;;;;;;7373102;19;20459;-47
2022/05/02 07:11:40;;;;;;;16.13;14.53;;;16.40;74.70;;;;;;7375854;19;20411;-47
2022/05/02 07:14:19;;;;;;;18.63;15.07;;;16.60;74.50;;;;;;7374707;19;21047;-47
2022/05/02 07:16:52;;;;;;;19.40;15.43;;;16.70;73.80;;;;;;7375477;19;20380;-47
2022/05/02 07:19:34;;;;;;;23.40;14.40;;;16.90;73.10;;;;;;7374749;19;21797;-47
2022/05/02 07:22:12;;;;;;;23.33;15.20;;;17.10;72.40;;;;;;7377536;19;20925;-48
2022/05/02 07:24:49;;;;;;;20.40;14.23;;;17.10;71.80;;;;;;7372388;19;20378;-48
2022/05/02 07:27:34;;;;;;;19.23;14.53;;;17.30;70.40;;;;;;7378035;19;20922;-48
2022/05/02 07:30:04;;;;;;;17.77;15.13;;;17.50;69.60;;;;;;7375466;19;20414;-48
2022/05/02 07:32:37;;;;;;;16.70;13.77;;;17.70;68.20;;;;;;7375815;19;20399;-48
2022/05/02 07:35:10;;;;;;;17.53;13.53;;;17.80;68.30;;;;;;7378342;19;20376;-49
2022/05/02 07:37:45;;;;;;;15.97;13.57;;;17.90;67.40;;;;;;7375382;19;20473;-49
2022/05/02 07:40:20;;;;;;;22.33;14.70;;;18.00;66.70;;;;;;7374546;19;20925;-48
2022/05/02 07:42:50;;;;;;;20.17;15.00;;;18.10;66.30;;;;;;7376614;19;20372;-50
2022/05/02 07:45:27;;;;;;;15.60;13.53;;;18.30;65.50;;;;;;7375355;19;20375;-48
2022/05/02 07:48:01;;;;;;;15.97;14.27;;;18.40;65.10;;;;;;7375053;19;20413;-48
2022/05/02 07:50:32;;;;;;;18.10;16.03;;;18.60;63.60;;;;;;7377235;19;20376;-47
2022/05/02 07:53:09;;;;;;;18.70;15.67;;;18.40;62.10;;;;;;7377289;19;20920;-47
2022/05/02 07:55:43;;;;;;;16.17;13.50;;;18.20;63.40;;;;;;7375108;19;20368;-49
2022/05/02 07:58:14;;;;;;;18.67;14.30;;;18.40;62.60;;;;;;7376417;19;20379;-48
2022/05/02 08:00:46;;;;;;;16.43;12.43;;;18.60;62.70;;;;;;7375888;19;20372;-48
2022/05/02 08:03:25;;;;;;;14.67;12.87;;;18.80;60.80;;;;;;7377441;19;21211;-48
2022/05/02 08:06:01;;;;;;;15.83;13.73;;;19.10;60.90;;;;;;7374958;19;20451;-47
2022/05/02 08:08:37;;;;;;;18.47;13.93;;;19.30;60.10;;;;;;7374196;19;20922;-47
2022/05/02 08:11:16;;;;;;;15.47;12.90;;;19.60;59.10;;;;;;7377404;19;20376;-47
2022/05/02 08:14:01;;;;;;;19.37;12.90;;;19.70;58.20;;;;;;7373049;19;20392;-47
2022/05/02 08:16:37;;;;;;;12.43;11.20;;;20.00;57.70;;;;;;7372897;19;20380;-47
2022/05/02 08:19:33;;;;;;;13.87;11.47;;;20.10;57.20;;;;;;7374613;19;20418;-47
2022/05/02 08:27:54;;;;;;;18.00;13.80;;;20.90;54.80;;;;;;7375479;19;21497;-48
2022/05/02 08:30:25;;;;;;;17.73;14.73;;;21.10;54.50;;;;;;7371816;19;20376;-48
2022/05/02 08:33:02;;;;;;;15.37;12.63;;;21.20;52.90;;;;;;7373536;19;20409;-48
2022/05/02 08:35:53;;;;;;;12.50;11.20;;;21.00;52.40;;;;;;7373811;19;20380;-48
2022/05/02 08:38:48;;;;;;;16.27;14.57;;;21.10;52.50;;;;;;7374536;19;20459;-48
2022/05/02 08:41:41;;;;;;;16.53;14.67;;;21.20;51.60;;;;;;7375803;19;20372;-48
2022/05/02 08:44:41;;;;;;;16.60;14.67;;;21.10;51.70;;;;;;7370699;19;20371;-47
2022/05/02 08:48:08;;;;;;;19.17;13.70;;;20.90;52.10;;;;;;7373829;19;20368;-47
2022/05/02 08:51:21;;;;;;;13.37;11.27;;;21.00;51.80;;;;;;7367817;19;20490;-48
2022/05/02 08:54:14;;;;;;;14.03;12.63;;;21.40;51.80;;;;;;7372526;19;20395;-48
2022/05/02 08:57:16;;;;;;;18.33;14.20;;;21.70;50.70;;;;;;7374971;19;20412;-48
2022/05/02 09:00:06;;;;;;;15.57;12.33;;;22.20;49.10;;;;;;7375510;19;20435;-49
2022/05/02 09:03:25;;;;;;;13.07;11.77;;;22.40;48.50;;;;;;7382620;19;20373;-48
2022/05/02 09:06:31;;;;;;;16.27;12.13;;;22.10;48.20;;;;;;7382298;19;21297;-48
2022/05/02 09:09:31;;;;;;;11.80;10.57;;;22.00;47.30;;;;;;7380027;19;20965;-49
2022/05/02 09:12:33;;;;;;;12.93;11.63;;;22.10;49.10;;;;;;7380179;19;20416;-48
2022/05/02 09:15:42;;;;;;;13.43;12.13;;;22.60;47.60;;;;;;7381336;19;20676;-50
2022/05/02 09:18:57;;;;;;;12.30;11.10;;;23.30;46.30;;;;;;7378914;19;20452;-49
2022/05/02 09:21:32;;;;;;;13.10;11.23;;;23.80;44.70;;;;;;7379307;19;20993;-41
2022/05/02 09:24:34;;;;;;;14.43;11.97;;;23.80;44.90;;;;;;7378584;19;20380;-40
2022/05/02 09:27:37;;;;;;;15.87;14.20;;;24.00;43.10;;;;;;7382663;19;20395;-40
2022/05/02 09:30:39;;;;;;;16.57;13.00;;;24.00;43.60;;;;;;7374412;19;20404;-41
2022/05/02 09:33:40;;;;;;;13.93;12.53;;;24.10;44.00;;;;;;7381415;19;20371;-40
2022/05/02 09:36:26;;;;;;;12.77;11.27;;;24.50;42.60;;;;;;7378244;19;20406;-41
2022/05/02 09:39:05;;;;;;;13.93;12.60;;;24.10;42.50;;;;;;7380428;19;20364;-40
2022/05/02 09:42:06;;;;;;;10.77;9.77;;;23.70;42.70;;;;;;7379694;19;20900;-40
2022/05/02 09:51:10;;;;;;;10.50;9.50;;;23.60;41.90;;;;;;7379993;19;20380;-48
2022/05/02 09:53:50;;;;;;;11.27;8.80;;;23.60;42.80;;;;;;7380316;19;20405;-48
2022/05/02 09:59:09;;;;;;;10.03;8.97;;;24.00;42.10;;;;;;7380889;19;20388;-48
2022/05/02 10:01:48;;;;;;;10.93;9.83;;;23.80;41.50;;;;;;7380497;19;20783;-48
2022/05/02 10:04:37;;;;;;;9.97;9.03;;;23.60;41.40;;;;;;7381714;19;20440;-48
2022/05/02 10:07:12;;;;;;;9.13;8.33;;;23.90;42.70;;;;;;7381089;19;21391;-48
2022/05/02 10:10:02;;;;;;;7.80;7.00;;;24.90;40.30;;;;;;7378519;19;20383;-47
2022/05/02 10:12:43;;;;;;;8.17;7.40;;;26.60;38.40;;;;;;7380115;19;20384;-48
2022/05/02 10:15:37;;;;;;;10.37;8.57;;;28.00;35.20;;;;;;7378299;19;20372;-46
2022/05/02 10:18:27;;;;;;;10.07;9.07;;;28.00;34.60;;;;;;7378155;19;20437;-47
2022/05/02 10:21:08;;;;;;;9.70;8.73;;;28.30;34.80;;;;;;7380322;19;20412;-48
2022/05/02 10:23:55;;;;;;;7.17;6.47;;;28.90;33.50;;;;;;7377787;19;20395;-48
2022/05/02 10:26:35;;;;;;;6.80;5.87;;;30.10;31.40;;;;;;7378926;19;20741;-49
2022/05/02 10:29:30;;;;;;;6.07;5.47;;;31.30;28.30;;;;;;7376405;19;20368;-49
2022/05/02 10:32:05;;;;;;;7.27;5.47;;;32.00;27.50;;;;;;7377685;19;20747;-49
2022/05/02 10:34:42;;;;;;;6.87;5.90;;;32.40;26.80;;;;;;7379074;19;20379;-47
2022/05/02 10:37:15;;;;;;;11.97;7.13;;;32.90;26.50;;;;;;7378560;19;20371;-47
2022/05/02 10:39:50;;;;;;;6.90;6.20;;;32.90;26.30;;;;;;7377992;19;20369;-47
2022/05/02 10:42:21;;;;;;;6.90;6.30;;;32.40;25.30;;;;;;7380212;19;20380;-49
2022/05/02 10:45:03;;;;;;;5.80;5.37;;;32.10;25.60;;;;;;7377572;19;20396;-48
2022/05/02 10:47:43;;;;;;;6.43;5.80;;;32.30;26.10;;;;;;7378877;19;20408;-47
2022/05/02 10:50:23;;;;;;;5.73;5.23;;;32.90;25.90;;;;;;7376814;19;21012;-47
2022/05/02 10:53:16;;;;;;;6.87;6.33;;;33.30;25.80;;;;;;7376494;19;20949;-48
2022/05/02 10:56:01;;;;;;;5.30;4.90;;;34.10;25.20;;;;;;7376395;19;20973;-48
2022/05/02 10:58:37;;;;;;;6.00;5.40;;;34.60;24.30;;;;;;7375259;19;20433;-48
2022/05/02 11:01:31;;;;;;;5.00;4.50;;;34.50;24.10;;;;;;7379599;19;21062;-47
2022/05/02 11:04:17;;;;;;;5.07;4.67;;;35.10;23.00;;;;;;7377599;19;20376;-47
2022/05/02 11:06:59;;;;;;;5.27;4.87;;;35.00;23.10;;;;;;7379123;19;20420;-47
2022/05/02 11:09:42;;;;;;;5.13;4.73;;;35.20;22.80;;;;;;7376897;19;20922;-46
2022/05/02 11:12:17;;;;;;;4.83;4.33;;;34.80;23.50;;;;;;7378782;19;20388;-48
2022/05/02 11:14:55;;;;;;;5.00;4.60;;;35.00;23.00;;;;;;7376714;19;20489;-50
2022/05/02 11:17:40;;;;;;;5.47;4.97;;;35.10;22.90;;;;;;7372572;19;20383;-47
2022/05/02 11:23:26;;;;;;;5.13;4.73;;;34.60;23.20;;;;;;7373918;19;20448;-46
2022/05/02 11:26:05;;;;;;;5.60;5.10;;;34.00;22.90;;;;;;7376549;19;20372;-48
2022/05/02 11:28:49;;;;;;;5.23;4.83;;;32.10;24.30;;;;;;7372103;19;20459;-47
2022/05/02 11:31:25;;;;;;;6.27;5.77;;;30.20;26.30;;;;;;7375426;19;20368;-48
2022/05/02 11:34:04;;;;;;;5.10;4.70;;;30.60;26.20;;;;;;7377954;19;20397;-48
2022/05/02 11:36:42;;;;;;;5.80;5.30;;;31.70;25.60;;;;;;7375863;19;20395;-48
2022/05/02 11:39:22;;;;;;;5.57;5.07;;;32.40;25.60;;;;;;7376825;19;20451;-48
2022/05/02 11:42:03;;;;;;;6.77;6.10;;;33.20;25.10;;;;;;7375041;19;20455;-49
2022/05/02 11:44:45;;;;;;;6.67;5.83;;;32.60;24.90;;;;;;7376882;19;20383;-50
2022/05/02 11:47:21;;;;;;;5.60;5.10;;;32.80;25.30;;;;;;7376787;19;20383;-48
2022/05/02 11:50:00;;;;;;;5.57;5.07;;;32.60;25.30;;;;;;7374212;19;20381;-47
2022/05/02 11:52:35;;;;;;;5.87;5.37;;;31.70;26.10;;;;;;7378032;19;20484;-47
2022/05/02 11:55:10;;;;;;;5.83;5.40;;;30.60;27.10;;;;;;7377927;19;20386;-47
2022/05/02 11:57:43;;;;;;;6.47;5.87;;;29.80;27.10;;;;;;7375340;19;20388;-47
2022/05/02 12:00:16;;;;;;;5.63;5.13;;;28.80;28.20;;;;;;7377451;19;20380;-48
2022/05/02 12:02:51;;;;;;;5.77;5.17;;;28.30;29.00;;;;;;7374522;19;20447;-46
2022/05/02 12:05:33;;;;;;;8.43;6.20;;;28.00;29.60;;;;;;7375111;19;20400;-46
2022/05/02 12:08:03;;;;;;;6.80;6.10;;;27.60;30.70;;;;;;7375962;19;20384;-49
2022/05/02 12:10:41;;;;;;;8.17;6.27;;;27.40;31.00;;;;;;7375279;19;20384;-47
2022/05/02 12:13:13;;;;;;;8.60;5.70;;;26.80;31.40;;;;;;7375616;19;20479;-47
2022/05/02 12:15:58;;;;;;;5.90;5.20;;;26.30;32.80;;;;;;7375069;19;20732;-47
2022/05/02 12:18:45;;;;;;;6.83;6.07;;;26.10;33.20;;;;;;7376259;19;20435;-47
2022/05/02 12:21:24;;;;;;;5.80;5.30;;;25.90;33.90;;;;;;7376454;19;21462;-47
2022/05/02 12:23:58;;;;;;;5.83;5.33;;;25.40;33.80;;;;;;7371735;19;20400;-47
2022/05/02 12:26:30;;;;;;;5.43;4.93;;;25.40;33.20;;;;;;7373288;19;20770;-47
2022/05/02 12:29:04;;;;;;;5.93;4.40;;;26.70;32.00;;;;;;7371917;19;21577;-48
2022/05/02 12:31:35;;;;;;;4.57;4.13;;;28.50;29.50;;;;;;7376429;19;20860;-47
2022/05/02 12:34:11;;;;;;;4.20;3.80;;;29.50;27.90;;;;;;7377521;19;20414;-47
2022/05/02 12:36:54;;;;;;;4.57;4.17;;;30.00;27.60;;;;;;7382071;19;20745;-47
2022/05/02 12:39:27;;;;;;;4.63;4.20;;;29.70;27.20;;;;;;7381275;19;20912;-47
2022/05/02 12:42:15;;;;;;;4.53;4.13;;;29.40;27.50;;;;;;7379563;19;20378;-46
2022/05/02 12:44:59;;;;;;;4.80;4.13;;;29.30;28.10;;;;;;7383408;19;20380;-47
2022/05/02 12:47:35;;;;;;;4.97;4.40;;;28.70;28.70;;;;;;7379018;19;20845;-46
2022/05/02 12:50:07;;;;;;;4.70;4.30;;;27.80;29.90;;;;;;7381694;19;20416;-46
2022/05/02 12:52:44;;;;;;;5.40;4.90;;;27.40;30.80;;;;;;7379276;19;20404;-47
2022/05/02 12:55:14;;;;;;;4.90;4.50;;;26.90;32.30;;;;;;7382455;19;21002;-47
2022/05/02 13:00:36;;;;;;;4.73;4.33;;;26.20;32.40;;;;;;7382949;19;20484;-47
2022/05/02 13:03:18;;;;;;;4.80;4.30;;;26.10;32.90;;;;;;7381226;19;21021;-47
2022/05/02 13:05:56;;;;;;;4.50;4.10;;;26.20;33.10;;;;;;7382722;19;21200;-47
2022/05/02 13:08:35;;;;;;;4.57;3.60;;;26.90;32.60;;;;;;7380647;19;20791;-47
2022/05/02 13:11:12;;;;;;;5.23;4.63;;;26.90;32.40;;;;;;7378785;19;20766;-47
2022/05/02 13:13:48;;;;;;;4.30;3.93;;;26.90;32.00;;;;;;7382416;19;20405;-47
2022/05/02 13:16:26;;;;;;;4.33;3.93;;;26.50;32.20;;;;;;7376175;19;20400;-49
2022/05/02 13:18:58;;;;;;;4.30;4.00;;;26.00;32.30;;;;;;7354085;19;20451;-49
2022/05/02 13:21:28;;;;;;;3.73;3.37;;;25.50;32.50;;;;;;7379268;19;20412;-47
2022/05/02 13:24:08;;;;;;;3.67;3.37;;;25.10;33.10;;;;;;7379473;19;20431;-47
2022/05/02 13:27:05;;;;;;;3.10;2.90;;;25.10;33.70;;;;;;7380883;19;20749;-47
2022/05/02 13:30:00;;;;;;;4.80;4.30;;;25.20;33.20;;;;;;7382069;19;20376;-47
2022/05/02 13:32:36;;;;;;;3.60;3.30;;;25.10;32.50;;;;;;7380426;19;20392;-47
2022/05/02 13:35:14;;;;;;;14.13;4.63;;;25.30;33.00;;;;;;7381553;19;20388;-47
2022/05/02 13:37:58;;;;;;;7.30;3.87;;;25.30;33.00;;;;;;7379622;19;20373;-47
2022/05/02 13:40:44;;;;;;;12.77;4.00;;;25.50;33.00;;;;;;7379405;19;20993;-47
2022/05/02 13:43:28;;;;;;;21.43;6.47;;;25.60;33.10;;;;;;7375556;19;20379;-47
2022/05/02 13:46:18;;;;;;;11.30;4.60;;;25.50;33.60;;;;;;7377641;19;20408;-47
2022/05/02 13:49:06;;;;;;;5.53;3.87;;;25.30;33.20;;;;;;7381675;19;20729;-47
2022/05/02 13:51:41;;;;;;;5.00;3.97;;;25.20;33.60;;;;;;7378921;19;20365;-49
2022/05/02 13:54:24;;;;;;;4.80;4.17;;;25.00;34.30;;;;;;7377748;19;20789;-47
2022/05/02 13:57:05;;;;;;;4.60;4.20;;;24.70;35.30;;;;;;7377681;19;20419;-47